»·PEaware :: N211WP KPOC-KBFL

N211WP :: KPOC-KBFL

FLIGHT INFORMATION

Flight Status: Arrived
Operator: Privately registered:
United States
More flights under this callsign
Pilot: Wayne M. (1794)
Aircraft: Unknown
(DA40)
More flights by this aircraft type
Origin: KPOC Brackett
United States
Destination: KBFL Meadows
United States
More flights between these airports :: More routes between these airports
Route: PDZ V186 DARTS V459 LHS FASTO1
File this flight plan on PilotEdge
Remarks:
Altitude:
(Current/Filed)
12,000ft
Speed:
(Current/Filed)
135kts
Departed: 18-Aug-15 12:41 PM
Arrived: 18-Aug-15 02:10 PM
Distance/Time
Traveled:
102nm/1:29
Distance/Time
To Go:
Arrived

Flight Plot

Page will automatically refresh every two minutes.


Map Options




Map Legend


Flown Route
Filed Route
Departure Airport
Arrival Airport
Navaid (VOR, NDB)
Fix

Horizontal Profiles

Position Reports

Time Latitude Longitude Heading Altitude Ground
Speed
18-Aug-15 12:16 34.089879 -117.780915 272 1015ft 0kts
18-Aug-15 12:17 34.089879 -117.780915 272 1015ft 0kts
18-Aug-15 12:18 34.089879 -117.780915 272 1015ft 0kts
18-Aug-15 12:19 34.089879 -117.780915 272 1015ft 0kts
18-Aug-15 12:20 34.089879 -117.780915 272 1015ft 0kts
18-Aug-15 12:21 34.089879 -117.780915 272 1015ft 0kts
18-Aug-15 12:22 34.089879 -117.780915 272 1015ft 0kts
18-Aug-15 12:23 34.089879 -117.780915 272 1015ft 0kts
18-Aug-15 12:24 34.089879 -117.780915 272 1015ft 0kts
18-Aug-15 12:25 34.089879 -117.780915 272 1015ft 0kts
18-Aug-15 12:26 34.089879 -117.780915 272 1015ft 0kts
18-Aug-15 12:27 34.089879 -117.780915 272 1015ft 0kts
18-Aug-15 12:28 34.089879 -117.780915 272 1015ft 0kts
18-Aug-15 12:29 34.089879 -117.780915 272 1015ft 0kts
18-Aug-15 12:30 34.089879 -117.780915 272 1015ft 0kts
18-Aug-15 12:31 34.089879 -117.780915 272 1015ft 0kts
18-Aug-15 12:32 34.089879 -117.780915 272 1015ft 0kts
18-Aug-15 12:33 34.089879 -117.780915 272 1015ft 0kts
18-Aug-15 12:34 34.089879 -117.780915 272 1015ft 0kts
18-Aug-15 12:35 34.089879 -117.780915 272 1015ft 0kts
18-Aug-15 12:36 34.089879 -117.780915 272 1015ft 0kts
18-Aug-15 12:37 34.089879 -117.780915 272 1015ft 0kts
18-Aug-15 12:38 34.089879 -117.780915 272 1015ft 0kts
18-Aug-15 12:39 34.089879 -117.780915 272 1015ft 0kts
18-Aug-15 12:40 34.089879 -117.780915 272 1015ft 0kts
18-Aug-15 12:41 34.089879 -117.780915 272 1015ft 0kts
18-Aug-15 12:42 34.090432 -117.781819 351 1015ft 9kts
18-Aug-15 12:43 34.090217 -117.782100 111 1015ft 0kts
18-Aug-15 12:44 34.090566 -117.781482 69 1015ft 3kts
18-Aug-15 12:45 34.090418 -117.777456 93 1015ft 6kts
18-Aug-15 12:46 34.090146 -117.775335 128 1015ft 4kts
18-Aug-15 12:47 34.090151 -117.775299 40 1015ft 0kts
18-Aug-15 12:48 34.090151 -117.775299 40 1015ft 0kts
18-Aug-15 12:49 34.090151 -117.775299 40 1015ft 0kts
18-Aug-15 12:50 34.090239 -117.774917 74 1015ft 8kts
18-Aug-15 12:51 34.091786 -117.788028 276 1408ft 75kts
18-Aug-15 12:52 34.075736 -117.794862 161 2415ft 91kts
18-Aug-15 12:53 34.059203 -117.787497 186 3302ft 91kts
18-Aug-15 12:54 34.052078 -117.798294 276 3902ft 89kts
18-Aug-15 12:55 34.055076 -117.815459 285 4357ft 105kts
18-Aug-15 12:56 34.059263 -117.834682 286 4801ft 114kts
18-Aug-15 12:57 34.063667 -117.854647 286 5229ft 118kts
18-Aug-15 12:58 34.067949 -117.873932 286 5630ft 120kts
18-Aug-15 12:59 34.072242 -117.893198 286 6026ft 120kts
18-Aug-15 13:00 34.076176 -117.910828 286 6389ft 120kts
18-Aug-15 13:01 34.080183 -117.928768 287 6758ft 121kts
18-Aug-15 13:02 34.084170 -117.946628 287 7123ft 121kts
18-Aug-15 13:03 34.088099 -117.964227 287 7483ft 120kts
18-Aug-15 13:04 34.091955 -117.981500 287 7793ft 123kts
18-Aug-15 13:05 34.096272 -118.000842 287 8084ft 127kts
18-Aug-15 13:06 34.100686 -118.020647 287 8373ft 128kts
18-Aug-15 13:07 34.105091 -118.040433 286 8659ft 129kts
18-Aug-15 13:08 34.109047 -118.058182 286 8918ft 127kts
18-Aug-15 13:09 34.113312 -118.077386 286 9197ft 126kts
18-Aug-15 13:10 34.117773 -118.097486 286 9492ft 125kts
18-Aug-15 13:11 34.121952 -118.115942 286 9765ft 124kts
18-Aug-15 13:12 34.126597 -118.136497 286 10071ft 123kts
18-Aug-15 13:13 34.131090 -118.156583 286 10372ft 123kts
18-Aug-15 13:14 34.135780 -118.177667 285 10688ft 122kts
18-Aug-15 13:15 34.140785 -118.200244 285 11030ft 121kts
18-Aug-15 13:16 34.146185 -118.224661 285 11402ft 119kts
18-Aug-15 13:17 34.151619 -118.249277 285 11782ft 118kts
18-Aug-15 13:18 34.160920 -118.270258 330 12155ft 115kts
18-Aug-15 13:19 34.180031 -118.282524 332 12291ft 134kts
18-Aug-15 13:20 34.204557 -118.297320 333 12000ft 151kts
18-Aug-15 13:21 34.229456 -118.311975 333 11992ft 130kts
18-Aug-15 13:33 34.340699 -118.374661 329 11914ft 137kts
18-Aug-15 13:34 34.363344 -118.389177 331 11917ft 137kts
18-Aug-15 13:35 34.386219 -118.403002 331 11919ft 137kts
18-Aug-15 13:36 34.408822 -118.416365 332 12030ft 133kts
18-Aug-15 13:37 34.429922 -118.428748 332 12022ft 139kts
18-Aug-15 13:38 34.449511 -118.440207 332 12018ft 140kts
18-Aug-15 13:39 34.475110 -118.455171 332 12016ft 141kts
18-Aug-15 13:40 34.501703 -118.470719 332 12016ft 140kts
18-Aug-15 13:41 34.526368 -118.485149 332 12019ft 140kts
18-Aug-15 13:42 34.552312 -118.500335 332 12024ft 140kts
18-Aug-15 13:43 34.576524 -118.514518 332 12026ft 141kts
18-Aug-15 13:44 34.600740 -118.528710 332 12019ft 141kts
18-Aug-15 13:45 34.627383 -118.544340 332 12013ft 141kts
18-Aug-15 13:46 34.654026 -118.559968 332 12004ft 141kts
18-Aug-15 13:47 34.678166 -118.574152 332 11997ft 141kts
18-Aug-15 13:48 34.697829 -118.592514 319 11998ft 140kts
18-Aug-15 13:49 34.715955 -118.610703 319 12003ft 140kts
18-Aug-15 13:50 34.736268 -118.631270 318 12023ft 139kts
18-Aug-15 13:51 34.758403 -118.653776 318 12050ft 139kts
18-Aug-15 13:52 34.780539 -118.676329 318 12073ft 139kts
18-Aug-15 13:53 34.801272 -118.697474 318 12091ft 139kts
18-Aug-15 13:54 34.819239 -118.715812 318 12103ft 139kts
18-Aug-15 13:55 34.838963 -118.735956 318 12195ft 135kts
18-Aug-15 13:56 34.858745 -118.756187 319 12072ft 146kts
18-Aug-15 13:57 34.882214 -118.780188 318 11711ft 152kts
18-Aug-15 13:58 34.906735 -118.805281 318 11333ft 153kts
18-Aug-15 13:59 34.931978 -118.831139 318 10944ft 153kts
18-Aug-15 14:00 34.958833 -118.857875 333 10522ft 154kts
18-Aug-15 14:01 34.998525 -118.859946 357 10235ft 149kts
18-Aug-15 14:02 35.036597 -118.860200 357 10081ft 146kts
18-Aug-15 14:03 35.070591 -118.860389 356 9228ft 128kts
18-Aug-15 14:04 35.101179 -118.860566 356 8186ft 113kts
18-Aug-15 14:05 35.130626 -118.860754 356 7231ft 132kts
18-Aug-15 14:06 35.165174 -118.860929 357 6246ft 141kts
18-Aug-15 14:07 35.200634 -118.861123 357 5250ft 142kts
18-Aug-15 14:08 35.234315 -118.861291 357 4268ft 128kts
18-Aug-15 14:09 35.263078 -118.861462 356 3537ft 112kts
18-Aug-15 14:10 35.284309 -118.876935 316 3549ft 100kts
18-Aug-15 14:11 35.302380 -118.897931 314 3545ft 89kts
18-Aug-15 14:12 35.319143 -118.917997 314 3546ft 90kts
18-Aug-15 14:13 35.335868 -118.938104 314 3119ft 89kts
18-Aug-15 14:14 35.352188 -118.957704 314 2679ft 89kts
18-Aug-15 14:15 35.368033 -118.976782 314 2243ft 89kts
18-Aug-15 14:16 35.382910 -118.994721 314 1837ft 89kts
18-Aug-15 14:17 35.399736 -119.015021 314 1383ft 88kts
18-Aug-15 14:18 35.416977 -119.035806 314 918ft 83kts
18-Aug-15 14:19 35.430542 -119.052183 313 549ft 59kts
18-Aug-15 14:20 35.435945 -119.058136 15 510ft 15kts

Navigation Log

Ident Type
Flight plan parsing failed, navigation log unavailable